createdAt,value
2022-10-22T00:02:02.854Z,12.90
2022-10-22T00:04:50.764Z,12.90
2022-10-22T00:07:39.142Z,12.90
2022-10-22T00:10:27.727Z,13.00
2022-10-22T00:13:15.815Z,13.00
2022-10-22T00:16:02.545Z,13.00
2022-10-22T00:18:50.812Z,12.90
2022-10-22T00:21:37.467Z,12.90
2022-10-22T00:24:26.845Z,12.90
2022-10-22T00:27:14.398Z,12.90
2022-10-22T00:30:02.790Z,12.90
2022-10-22T00:32:49.530Z,12.90
2022-10-22T00:35:37.798Z,12.90
2022-10-22T00:38:24.586Z,12.80
2022-10-22T00:41:12.791Z,12.70
2022-10-22T00:44:03.249Z,12.60
2022-10-22T00:46:51.869Z,12.70
2022-10-22T00:49:38.653Z,12.70
2022-10-22T00:52:26.795Z,12.80
2022-10-22T00:55:14.985Z,12.80
2022-10-22T00:58:04.802Z,12.90
2022-10-22T01:00:51.779Z,12.70
2022-10-22T01:03:39.845Z,12.70
2022-10-22T01:06:29.149Z,12.80
2022-10-22T01:09:17.807Z,12.70
2022-10-22T01:12:34.295Z,12.60
2022-10-22T01:15:36.792Z,12.50
2022-10-22T01:18:32.879Z,12.30
2022-10-22T01:21:37.840Z,12.30
2022-10-22T01:24:33.995Z,12.40
2022-10-22T01:27:31.776Z,12.50
2022-10-22T01:30:19.679Z,12.50
2022-10-22T01:33:08.328Z,12.30
2022-10-22T01:35:55.619Z,12.20
2022-10-22T01:38:43.167Z,12.10
2022-10-22T01:41:30.183Z,11.90
2022-10-22T01:48:04.511Z,12.10
2022-10-22T01:50:57.668Z,12.30
2022-10-22T01:54:08.914Z,12.40
2022-10-22T01:57:12.341Z,12.40
2022-10-22T02:00:05.167Z,12.50
2022-10-22T02:03:05.323Z,12.50
2022-10-22T02:05:59.941Z,12.60
2022-10-22T02:08:49.307Z,12.70
2022-10-22T02:11:39.556Z,12.70
2022-10-22T02:14:29.297Z,12.80
2022-10-22T02:17:19.987Z,12.80
2022-10-22T02:20:12.852Z,12.90
2022-10-22T02:23:00.753Z,12.90
2022-10-22T02:25:49.378Z,12.90
2022-10-22T02:28:45.856Z,12.90
2022-10-22T02:31:36.791Z,12.90
2022-10-22T02:34:27.656Z,12.80
2022-10-22T02:37:15.799Z,12.90
2022-10-22T02:40:03.054Z,13.00
2022-10-22T02:42:50.971Z,13.00
2022-10-22T02:45:40.046Z,12.90
2022-10-22T02:48:35.154Z,12.90
2022-10-22T02:51:21.913Z,12.90
2022-10-22T02:54:13.007Z,12.90
2022-10-22T02:56:59.804Z,12.90
2022-10-22T02:59:58.543Z,12.90
2022-10-22T03:02:50.540Z,12.80
2022-10-22T03:05:38.804Z,12.60
2022-10-22T03:08:25.700Z,12.60
2022-10-22T03:11:19.545Z,12.60
2022-10-22T03:14:06.314Z,12.50
2022-10-22T03:17:04.140Z,12.40
2022-10-22T03:19:53.890Z,12.40
2022-10-22T03:22:46.869Z,12.40
2022-10-22T03:25:34.579Z,12.50
2022-10-22T03:28:25.795Z,12.50
2022-10-22T03:31:14.813Z,12.40
2022-10-22T03:34:04.766Z,12.20
2022-10-22T03:36:57.350Z,12.10
2022-10-22T03:39:57.037Z,12.20
2022-10-22T03:42:44.599Z,12.20
2022-10-22T03:45:34.806Z,12.10
2022-10-22T03:48:28.678Z,12.00
2022-10-22T03:51:19.734Z,12.00
2022-10-22T03:54:08.699Z,12.10
2022-10-22T03:56:56.758Z,12.20
2022-10-22T03:59:45.727Z,12.20
2022-10-22T04:02:39.463Z,12.20
2022-10-22T04:05:26.319Z,12.30
2022-10-22T04:08:14.752Z,12.40
2022-10-22T04:11:02.116Z,12.40
2022-10-22T04:13:52.673Z,12.50
2022-10-22T04:16:48.807Z,12.50
2022-10-22T04:19:37.738Z,12.40
2022-10-22T04:22:24.459Z,12.40
2022-10-22T04:25:16.175Z,12.40
2022-10-22T04:28:05.690Z,12.50
2022-10-22T04:30:56.990Z,12.40
2022-10-22T04:33:43.796Z,12.50
2022-10-22T04:36:33.730Z,12.40
2022-10-22T04:39:25.109Z,12.50
2022-10-22T04:42:18.074Z,12.60
2022-10-22T04:45:14.972Z,12.60
2022-10-22T04:48:07.856Z,12.60
2022-10-22T04:50:56.989Z,12.60
2022-10-22T04:53:46.713Z,12.60
2022-10-22T04:56:33.464Z,12.70
2022-10-22T04:59:24.730Z,12.70
2022-10-22T05:02:13.408Z,12.80
2022-10-22T05:05:27.738Z,12.80
2022-10-22T05:08:20.360Z,12.80
2022-10-22T05:11:26.769Z,12.60
2022-10-22T05:14:16.992Z,12.80
2022-10-22T05:17:06.725Z,12.60
2022-10-22T05:19:53.471Z,12.60
2022-10-22T05:22:52.800Z,12.60
2022-10-22T05:25:41.692Z,12.60
2022-10-22T05:28:42.708Z,12.40
2022-10-22T05:31:29.860Z,12.30
2022-10-22T05:34:21.015Z,12.30
2022-10-22T05:37:12.179Z,12.40
2022-10-22T05:40:19.515Z,12.50
2022-10-22T05:43:12.918Z,12.60
2022-10-22T05:46:08.837Z,12.70
2022-10-22T05:49:26.455Z,12.60
2022-10-22T05:52:15.730Z,12.60
2022-10-22T05:55:02.692Z,12.50
2022-10-22T05:57:52.066Z,12.50
2022-10-22T06:00:43.978Z,12.50
2022-10-22T06:03:35.741Z,12.60
2022-10-22T06:06:47.855Z,12.60
2022-10-22T06:09:40.675Z,12.70
2022-10-22T06:12:27.458Z,12.80
2022-10-22T06:15:20.955Z,12.90
2022-10-22T06:18:13.967Z,12.90
2022-10-22T06:21:11.699Z,12.90
2022-10-22T06:24:07.010Z,13.00
2022-10-22T06:26:58.002Z,13.10
2022-10-22T06:29:50.083Z,13.10
2022-10-22T06:32:43.999Z,13.10
2022-10-22T06:35:34.518Z,13.10
2022-10-22T06:38:34.633Z,13.20
2022-10-22T06:41:28.724Z,13.20
2022-10-22T06:44:19.747Z,13.30
2022-10-22T06:47:09.141Z,13.30
2022-10-22T06:50:00.742Z,13.30
2022-10-22T06:52:50.974Z,13.40
2022-10-22T06:55:42.719Z,13.20
2022-10-22T06:58:29.590Z,13.10
2022-10-22T07:01:33.256Z,13.00
2022-10-22T07:04:24.122Z,12.90
2022-10-22T07:07:12.700Z,12.80
2022-10-22T07:09:59.490Z,12.80
2022-10-22T07:12:47.706Z,12.80
2022-10-22T07:15:34.639Z,12.80
2022-10-22T07:18:23.707Z,12.80
2022-10-22T07:21:12.063Z,12.90
2022-10-22T07:24:00.711Z,13.00
2022-10-22T07:26:48.160Z,13.00
2022-10-22T07:29:38.565Z,12.80
2022-10-22T07:32:25.339Z,12.80
2022-10-22T07:35:13.688Z,13.10
2022-10-22T07:38:01.396Z,12.90
2022-10-22T07:40:49.722Z,12.80
2022-10-22T07:43:36.439Z,12.90
2022-10-22T07:46:23.590Z,13.00
2022-10-22T07:49:10.307Z,13.10
2022-10-22T07:51:57.164Z,13.10
2022-10-22T07:54:43.906Z,13.10
2022-10-22T07:57:30.661Z,13.30
2022-10-22T08:00:19.464Z,13.30
2022-10-22T08:03:13.520Z,13.40
2022-10-22T08:06:01.060Z,13.40
2022-10-22T08:08:48.236Z,13.50
2022-10-22T08:11:35.081Z,13.70
2022-10-22T08:14:21.840Z,13.70
2022-10-22T08:17:08.582Z,13.70
2022-10-22T08:19:56.666Z,13.80
2022-10-22T08:22:43.247Z,13.70
2022-10-22T08:25:31.722Z,13.80
2022-10-22T08:28:21.164Z,13.80
2022-10-22T08:31:09.244Z,14.00
2022-10-22T08:33:56.130Z,14.20
2022-10-22T08:36:43.226Z,14.60
2022-10-22T08:39:30.046Z,15.00
2022-10-22T08:43:06.692Z,15.30
2022-10-22T08:46:12.465Z,15.20
2022-10-22T08:49:03.739Z,15.40
2022-10-22T08:51:51.229Z,15.20
2022-10-22T08:54:55.673Z,15.20
2022-10-22T08:58:06.630Z,15.70
2022-10-22T09:01:27.820Z,15.90
2022-10-22T09:04:37.779Z,16.00
2022-10-22T09:07:24.987Z,16.20
2022-10-22T09:10:13.196Z,16.50
2022-10-22T09:13:00.056Z,17.20
2022-10-22T09:15:54.922Z,17.80
2022-10-22T09:18:46.403Z,18.20
2022-10-22T09:21:51.588Z,18.10
2022-10-22T09:24:43.054Z,18.00
2022-10-22T09:27:31.217Z,17.90
2022-10-22T09:30:23.018Z,17.20
2022-10-22T09:33:13.433Z,17.30
2022-10-22T09:36:05.664Z,17.60
2022-10-22T09:38:53.591Z,17.90
2022-10-22T09:41:40.360Z,17.50
2022-10-22T09:44:27.294Z,17.60
2022-10-22T09:47:43.485Z,18.00
2022-10-22T09:50:46.150Z,18.30
2022-10-22T09:53:39.039Z,19.00
2022-10-22T09:56:40.842Z,19.80
2022-10-22T09:59:31.448Z,20.80
2022-10-22T10:02:37.536Z,23.10
2022-10-22T10:05:30.651Z,26.00
2022-10-22T10:08:18.293Z,30.60
2022-10-22T10:11:39.641Z,32.90
2022-10-22T10:15:16.116Z,34.40
2022-10-22T10:18:36.633Z,37.10
2022-10-22T10:21:48.825Z,39.90
2022-10-22T10:24:58.631Z,41.50
2022-10-22T10:27:56.149Z,42.90
2022-10-22T10:31:09.631Z,44.00
2022-10-22T10:34:28.618Z,44.90
2022-10-22T10:37:22.785Z,45.60
2022-10-22T10:40:36.743Z,45.70
2022-10-22T10:43:51.404Z,45.30
2022-10-22T10:47:02.022Z,45.60
2022-10-22T10:49:57.384Z,45.20
2022-10-22T10:53:14.368Z,44.80
2022-10-22T10:56:30.430Z,44.10
2022-10-22T10:59:32.172Z,45.10
2022-10-22T11:02:34.156Z,46.00
2022-10-22T11:05:29.732Z,46.80
2022-10-22T11:08:27.118Z,47.30
2022-10-22T11:11:43.532Z,47.60
2022-10-22T11:14:45.362Z,47.70
2022-10-22T11:17:45.617Z,47.60
2022-10-22T11:20:38.523Z,47.70
2022-10-22T11:23:32.859Z,46.60
2022-10-22T11:26:54.154Z,45.60
2022-10-22T11:29:46.999Z,45.80
2022-10-22T11:32:33.976Z,46.30
2022-10-22T11:35:31.596Z,45.80
2022-10-22T11:38:24.655Z,46.00
2022-10-22T11:41:14.233Z,46.20
2022-10-22T11:44:20.771Z,46.80
2022-10-22T11:47:24.720Z,47.50
2022-10-22T11:50:26.628Z,47.90
2022-10-22T11:53:13.351Z,48.10
2022-10-22T11:56:07.635Z,48.40
2022-10-22T11:58:55.707Z,48.30
2022-10-22T12:01:44.663Z,47.80
2022-10-22T12:04:42.991Z,47.90
2022-10-22T12:07:58.684Z,48.40
2022-10-22T12:11:04.032Z,48.40
2022-10-22T12:14:13.641Z,48.40
2022-10-22T12:17:05.775Z,48.40
2022-10-22T12:20:14.661Z,48.30
2022-10-22T12:23:01.717Z,48.20
2022-10-22T12:25:51.670Z,47.80
2022-10-22T12:28:41.462Z,47.30
2022-10-22T12:31:28.883Z,46.40
2022-10-22T12:34:18.634Z,45.90
2022-10-22T12:37:06.041Z,45.30
2022-10-22T12:39:52.759Z,45.00
2022-10-22T12:42:40.618Z,44.60
2022-10-22T12:45:33.039Z,44.00
2022-10-22T12:48:27.035Z,43.20
2022-10-22T12:51:18.837Z,42.30
2022-10-22T12:54:10.737Z,41.40
2022-10-22T12:56:58.678Z,40.40
2022-10-22T12:59:51.234Z,39.30
2022-10-22T13:02:38.222Z,38.30
2022-10-22T13:05:27.791Z,36.90
2022-10-22T13:08:20.725Z,35.40
2022-10-22T13:11:11.650Z,34.00
2022-10-22T13:14:03.682Z,32.60
2022-10-22T13:17:07.645Z,31.50
2022-10-22T13:19:54.521Z,30.20
2022-10-22T13:23:04.683Z,29.30
2022-10-22T13:26:18.437Z,28.50
2022-10-22T13:29:12.678Z,27.70
2022-10-22T13:31:59.453Z,26.90
2022-10-22T13:34:47.654Z,25.90
2022-10-22T13:37:35.555Z,24.80
2022-10-22T13:40:23.652Z,24.20
2022-10-22T13:43:10.422Z,23.90
2022-10-22T13:46:02.619Z,23.60
2022-10-22T13:48:52.704Z,23.40
2022-10-22T13:51:39.639Z,23.20
2022-10-22T13:54:26.364Z,22.90
2022-10-22T13:57:13.080Z,22.60
2022-10-22T14:00:03.511Z,22.30
2022-10-22T14:02:55.130Z,22.00
2022-10-22T14:05:42.207Z,21.70
2022-10-22T14:08:29.140Z,21.40
2022-10-22T14:11:16.248Z,21.20
2022-10-22T14:14:04.993Z,20.90
2022-10-22T14:16:51.695Z,20.90
2022-10-22T14:19:38.459Z,20.60
2022-10-22T14:22:28.162Z,20.50
2022-10-22T14:25:22.635Z,20.40
2022-10-22T14:28:10.807Z,20.30
2022-10-22T14:30:57.630Z,20.20
2022-10-22T14:33:44.395Z,20.20
2022-10-22T14:36:33.935Z,20.20
2022-10-22T14:39:21.561Z,20.20
2022-10-22T14:42:11.255Z,20.20
2022-10-22T14:44:57.971Z,19.90
2022-10-22T14:47:44.917Z,19.90
2022-10-22T14:50:34.309Z,19.80
2022-10-22T14:53:23.827Z,19.60
2022-10-22T14:56:22.336Z,19.40
2022-10-22T14:59:11.770Z,19.20
2022-10-22T15:02:00.788Z,19.10
2022-10-22T15:04:50.595Z,19.10
2022-10-22T15:07:39.391Z,19.00
2022-10-22T15:10:26.878Z,19.00
2022-10-22T15:13:13.621Z,19.20
2022-10-22T15:16:07.615Z,19.30
2022-10-22T15:18:54.626Z,19.40
2022-10-22T15:24:28.985Z,19.30
2022-10-22T15:27:15.856Z,19.20
2022-10-22T15:32:54.303Z,19.20
2022-10-22T15:35:43.679Z,19.30
2022-10-22T15:38:33.789Z,19.30
2022-10-22T15:41:20.500Z,19.30
2022-10-22T15:44:08.591Z,19.30
2022-10-22T15:46:59.091Z,19.20
2022-10-22T15:49:50.885Z,19.10
2022-10-22T15:52:37.612Z,19.00
2022-10-22T15:55:26.669Z,19.00
2022-10-22T15:58:13.450Z,18.80
2022-10-22T16:01:08.398Z,18.80
2022-10-22T16:04:02.792Z,18.80
2022-10-22T16:06:52.836Z,18.70
2022-10-22T16:09:39.574Z,18.60
2022-10-22T16:12:27.703Z,18.40
2022-10-22T16:15:14.588Z,18.10
2022-10-22T16:18:02.676Z,17.90
2022-10-22T16:20:49.836Z,17.80
2022-10-22T16:23:39.605Z,17.80
2022-10-22T16:26:26.444Z,17.70
2022-10-22T16:29:13.295Z,17.50
2022-10-22T16:32:00.087Z,17.40
2022-10-22T16:34:47.011Z,17.20
2022-10-22T16:37:33.890Z,17.10
2022-10-22T16:40:20.663Z,17.00
2022-10-22T16:43:07.454Z,16.90
2022-10-22T16:45:54.188Z,16.80
2022-10-22T16:48:48.546Z,16.60
2022-10-22T16:51:36.302Z,16.50
2022-10-22T16:54:22.993Z,16.40
2022-10-22T16:57:12.275Z,16.30
2022-10-22T16:59:59.018Z,16.20
2022-10-22T17:02:51.595Z,16.20
2022-10-22T17:05:38.650Z,16.10
2022-10-22T17:08:26.598Z,16.00
2022-10-22T17:11:17.534Z,15.90
2022-10-22T17:14:04.798Z,15.80
2022-10-22T17:16:54.508Z,15.70
2022-10-22T17:19:41.282Z,15.70
2022-10-22T17:22:28.061Z,15.60
2022-10-22T17:25:19.223Z,15.60
2022-10-22T17:28:05.969Z,15.60
2022-10-22T17:31:10.762Z,15.60
2022-10-22T17:33:57.887Z,15.50
2022-10-22T17:36:45.149Z,15.50
2022-10-22T17:39:31.907Z,15.40
2022-10-22T17:42:18.968Z,15.40
2022-10-22T17:45:06.786Z,15.30
2022-10-22T17:47:53.464Z,15.30
2022-10-22T17:50:46.986Z,15.20
2022-10-22T17:53:41.740Z,15.10
2022-10-22T17:56:32.374Z,15.00
2022-10-22T17:59:21.639Z,14.90
2022-10-22T18:02:14.694Z,14.90
2022-10-22T18:05:02.631Z,14.90
2022-10-22T18:07:49.294Z,15.00
2022-10-22T18:10:41.629Z,15.00
2022-10-22T18:13:28.435Z,15.00
2022-10-22T18:16:16.615Z,15.00
2022-10-22T18:19:03.382Z,15.00
2022-10-22T18:21:51.595Z,14.90
2022-10-22T18:24:38.942Z,14.80
2022-10-22T18:27:27.562Z,14.70
2022-10-22T18:30:14.271Z,14.60
2022-10-22T18:33:02.589Z,14.50
2022-10-22T18:35:49.655Z,14.40
2022-10-22T18:38:39.559Z,14.30
2022-10-22T18:41:27.798Z,14.30
2022-10-22T18:44:17.580Z,14.30
2022-10-22T18:47:04.433Z,14.30
2022-10-22T18:49:53.610Z,14.20
2022-10-22T18:52:40.649Z,14.20
2022-10-22T18:55:28.565Z,14.20
2022-10-22T18:58:15.328Z,14.20
2022-10-22T19:01:12.796Z,14.20
2022-10-22T19:03:59.646Z,14.10
2022-10-22T19:06:49.574Z,14.10
2022-10-22T19:09:36.383Z,14.10
2022-10-22T19:12:24.600Z,14.10
2022-10-22T19:15:11.396Z,14.10
2022-10-22T19:17:59.543Z,14.00
2022-10-22T19:20:58.824Z,13.90
2022-10-22T19:23:47.590Z,13.90
2022-10-22T19:26:34.503Z,13.80
2022-10-22T19:29:23.568Z,13.80
2022-10-22T19:32:10.299Z,13.80
2022-10-22T19:34:58.589Z,13.70
2022-10-22T19:37:48.337Z,13.70
2022-10-22T19:40:36.589Z,13.70
2022-10-22T19:43:23.311Z,13.50
2022-10-22T19:46:12.593Z,13.40
2022-10-22T19:49:00.015Z,13.20
2022-10-22T19:51:48.574Z,13.10
2022-10-22T19:54:40.579Z,13.10
2022-10-22T19:57:28.551Z,13.00
2022-10-22T20:00:15.388Z,12.90
2022-10-22T20:03:03.531Z,12.90
2022-10-22T20:05:53.122Z,12.80
2022-10-22T20:08:41.609Z,12.80
2022-10-22T20:11:29.812Z,12.80
2022-10-22T20:14:18.564Z,12.70
2022-10-22T20:17:05.275Z,12.70
2022-10-22T20:19:53.570Z,12.70
2022-10-22T20:22:42.946Z,12.60
2022-10-22T20:25:31.574Z,12.60
2022-10-22T20:28:18.269Z,12.50
2022-10-22T20:31:18.567Z,12.50
2022-10-22T20:34:05.330Z,12.50
2022-10-22T20:36:53.584Z,12.50
2022-10-22T20:39:40.381Z,12.60
2022-10-22T20:42:33.531Z,12.60
2022-10-22T20:45:29.038Z,12.70
2022-10-22T20:48:25.574Z,12.70
2022-10-22T20:51:17.755Z,12.70
2022-10-22T20:54:07.584Z,12.60
2022-10-22T20:57:00.647Z,12.70
2022-10-22T21:03:04.273Z,12.80
2022-10-22T21:05:55.214Z,13.00
2022-10-22T21:08:44.698Z,13.10
2022-10-22T21:11:33.528Z,13.30
2022-10-22T21:14:23.006Z,13.40
2022-10-22T21:17:13.548Z,13.50
2022-10-22T21:20:00.355Z,13.50
2022-10-22T21:22:52.561Z,13.40
2022-10-22T21:25:41.971Z,13.20
2022-10-22T21:28:38.564Z,13.20
2022-10-22T21:31:27.737Z,13.20
2022-10-22T21:34:17.349Z,13.10
2022-10-22T21:37:04.113Z,12.90
2022-10-22T21:39:53.384Z,12.80
2022-10-22T21:42:40.131Z,12.70
2022-10-22T21:45:29.564Z,12.70
2022-10-22T21:48:24.718Z,12.70
2022-10-22T21:51:17.550Z,12.70
2022-10-22T21:54:05.091Z,12.60
2022-10-22T21:56:54.871Z,12.70
2022-10-22T21:59:44.049Z,12.60
2022-10-22T22:02:34.537Z,12.60
2022-10-22T22:05:21.556Z,12.50
2022-10-22T22:08:08.319Z,12.50
2022-10-22T22:11:13.960Z,12.40
2022-10-22T22:14:00.912Z,12.50
2022-10-22T22:16:47.604Z,12.70
2022-10-22T22:19:41.444Z,12.80
2022-10-22T22:22:31.348Z,13.00
2022-10-22T22:25:18.189Z,12.80
2022-10-22T22:28:04.918Z,12.60
2022-10-22T22:30:56.002Z,12.50
2022-10-22T22:33:43.260Z,12.40
2022-10-22T22:36:36.372Z,12.40
2022-10-22T22:39:23.567Z,12.40
2022-10-22T22:42:16.640Z,12.40
2022-10-22T22:45:04.209Z,12.40
2022-10-22T22:47:52.500Z,12.40
2022-10-22T22:50:39.505Z,12.30
2022-10-22T22:53:28.205Z,12.30
2022-10-22T22:56:26.715Z,12.40
2022-10-22T22:59:17.504Z,12.40
2022-10-22T23:02:06.937Z,12.50
2022-10-22T23:04:57.477Z,12.50
2022-10-22T23:07:44.161Z,12.60
2022-10-22T23:10:34.547Z,12.60
2022-10-22T23:13:21.384Z,12.60
2022-10-22T23:16:13.550Z,12.70
2022-10-22T23:19:03.119Z,12.70
2022-10-22T23:22:02.513Z,12.80
2022-10-22T23:24:49.194Z,12.80
2022-10-22T23:27:37.511Z,12.80
2022-10-22T23:30:29.500Z,12.80
2022-10-22T23:33:18.491Z,12.80
2022-10-22T23:36:07.343Z,12.80
2022-10-22T23:38:56.462Z,12.80
2022-10-22T23:41:43.324Z,12.80
2022-10-22T23:44:33.521Z,12.90
2022-10-22T23:47:20.297Z,12.90
2022-10-22T23:50:14.475Z,12.90
2022-10-22T23:53:01.188Z,13.00
2022-10-22T23:55:52.772Z,13.00
2022-10-22T23:58:42.333Z,13.00
